createdAt,value
2023-03-17T00:01:30.974Z,1.70
2023-03-17T00:06:35.112Z,1.87
2023-03-17T00:11:38.252Z,2.03
2023-03-17T00:16:45.180Z,1.67
2023-03-17T00:21:48.743Z,2.13
2023-03-17T00:26:51.859Z,1.57
2023-03-17T00:31:58.212Z,2.17
2023-03-17T00:37:01.967Z,1.90
2023-03-17T00:42:05.383Z,1.40
2023-03-17T00:47:10.778Z,1.80
2023-03-17T00:52:14.189Z,1.90
2023-03-17T00:57:17.910Z,1.50
2023-03-17T01:02:22.490Z,1.73
2023-03-17T01:07:25.851Z,1.70
2023-03-17T01:12:29.144Z,1.60
2023-03-17T01:17:33.675Z,1.90
2023-03-17T01:22:36.994Z,1.30
2023-03-17T01:27:41.653Z,1.20
2023-03-17T01:32:46.490Z,1.70
2023-03-17T01:37:50.590Z,1.70
2023-03-17T01:42:56.102Z,1.73
2023-03-17T01:48:00.559Z,1.63
2023-03-17T01:53:03.778Z,1.70
2023-03-17T01:58:07.415Z,1.40
2023-03-17T02:03:12.501Z,1.90
2023-03-17T02:08:17.821Z,1.60
2023-03-17T02:13:21.097Z,1.87
2023-03-17T02:18:30.275Z,1.77
2023-03-17T02:23:35.439Z,1.93
2023-03-17T02:28:39.931Z,2.13
2023-03-17T02:33:43.548Z,1.73
2023-03-17T02:38:48.272Z,1.70
2023-03-17T02:43:52.048Z,2.00
2023-03-17T02:48:57.662Z,1.90
2023-03-17T02:54:02.163Z,1.47
2023-03-17T02:59:05.489Z,1.90
2023-03-17T03:04:09.247Z,1.90
2023-03-17T03:09:14.765Z,2.00
2023-03-17T03:14:18.278Z,1.77
2023-03-17T03:19:22.538Z,2.20
2023-03-17T03:24:28.098Z,1.90
2023-03-17T03:29:31.537Z,1.57
2023-03-17T03:34:35.289Z,1.50
2023-03-17T03:39:40.365Z,1.70
2023-03-17T03:44:43.475Z,1.77
2023-03-17T03:49:46.488Z,1.40
2023-03-17T03:54:51.210Z,1.60
2023-03-17T03:59:54.627Z,1.70
2023-03-17T04:04:58.133Z,2.20
2023-03-17T04:10:03.143Z,1.97
2023-03-17T04:15:09.001Z,2.03
2023-03-17T04:20:14.234Z,1.93
2023-03-17T04:25:19.283Z,2.17
2023-03-17T04:30:22.762Z,1.73
2023-03-17T04:35:26.828Z,2.00
2023-03-17T04:40:32.612Z,1.97
2023-03-17T04:45:36.115Z,2.00
2023-03-17T04:50:39.638Z,1.93
2023-03-17T04:55:44.185Z,2.20
2023-03-17T05:00:47.762Z,1.73
2023-03-17T05:05:51.172Z,1.90
2023-03-17T05:10:56.481Z,2.30
2023-03-17T05:16:00.942Z,1.87
2023-03-17T05:21:04.913Z,1.90
2023-03-17T05:26:10.194Z,2.03
2023-03-17T05:31:13.501Z,2.27
2023-03-17T05:36:16.779Z,1.80
2023-03-17T05:41:21.683Z,2.20
2023-03-17T05:46:25.026Z,1.87
2023-03-17T05:51:28.783Z,1.80
2023-03-17T05:56:34.238Z,1.90
2023-03-17T06:01:37.735Z,2.20
2023-03-17T06:06:41.276Z,2.40
2023-03-17T06:11:45.834Z,2.10
2023-03-17T06:16:49.117Z,2.10
2023-03-17T06:21:52.259Z,1.60
2023-03-17T06:26:56.800Z,1.80
2023-03-17T06:32:17.090Z,2.20
2023-03-17T06:37:22.976Z,2.10
2023-03-17T06:42:27.912Z,1.70
2023-03-17T06:47:31.245Z,1.80
2023-03-17T06:52:34.408Z,1.87
2023-03-17T06:57:39.141Z,2.40
2023-03-17T07:02:43.047Z,2.00
2023-03-17T07:07:46.360Z,1.90
2023-03-17T07:12:51.249Z,1.60
2023-03-17T07:17:54.747Z,1.60
2023-03-17T07:22:58.486Z,1.40
2023-03-17T07:28:03.080Z,1.77
2023-03-17T07:33:06.285Z,1.47
2023-03-17T07:38:09.888Z,1.60
2023-03-17T07:43:14.885Z,1.60
2023-03-17T07:48:18.197Z,1.57
2023-03-17T07:53:21.485Z,1.30
2023-03-17T07:58:26.816Z,1.50
2023-03-17T08:03:30.662Z,1.10
2023-03-17T08:08:34.434Z,1.53
2023-03-17T08:13:38.875Z,1.80
2023-03-17T08:18:42.165Z,1.40
2023-03-17T08:23:45.504Z,1.40
2023-03-17T08:28:51.172Z,1.43
2023-03-17T08:33:56.976Z,1.63
2023-03-17T08:39:00.728Z,1.50
2023-03-17T08:44:05.394Z,1.50
2023-03-17T08:49:09.587Z,1.50
2023-03-17T08:54:13.030Z,1.50
2023-03-17T08:59:17.478Z,1.47
2023-03-17T09:04:20.771Z,1.10
2023-03-17T09:09:24.832Z,1.27
2023-03-17T09:14:35.288Z,1.30
2023-03-17T09:19:46.057Z,1.47
2023-03-17T09:24:49.155Z,1.60
2023-03-17T09:29:53.984Z,1.30
2023-03-17T09:34:57.825Z,1.20
2023-03-17T09:40:02.191Z,1.27
2023-03-17T09:45:21.075Z,1.30
2023-03-17T09:50:28.062Z,1.10
2023-03-17T09:55:33.810Z,1.67
2023-03-17T10:00:39.369Z,1.40
2023-03-17T10:05:42.457Z,1.53
2023-03-17T10:10:48.363Z,1.47
2023-03-17T10:15:59.192Z,1.20
2023-03-17T10:21:05.900Z,1.17
2023-03-17T10:26:20.358Z,1.53
2023-03-17T10:31:33.065Z,1.33
2023-03-17T10:36:38.512Z,1.27
2023-03-17T10:41:49.038Z,1.60
2023-03-17T10:46:58.107Z,1.60
2023-03-17T10:52:01.288Z,1.20
2023-03-17T10:57:09.375Z,1.70
2023-03-17T11:02:22.648Z,1.67
2023-03-17T11:07:31.226Z,1.60
2023-03-17T11:12:39.969Z,1.23
2023-03-17T11:17:53.085Z,1.17
2023-03-17T11:23:04.946Z,1.13
2023-03-17T11:28:19.928Z,1.97
2023-03-17T11:33:36.281Z,1.27
2023-03-17T11:38:48.207Z,1.10
2023-03-17T11:44:18.645Z,1.20
2023-03-17T11:49:30.098Z,1.10
2023-03-17T11:54:45.868Z,1.37
2023-03-17T11:59:53.213Z,1.40
2023-03-17T12:05:03.017Z,1.60
2023-03-17T12:10:16.010Z,1.33
2023-03-17T12:15:26.812Z,1.50
2023-03-17T12:20:48.112Z,1.30
2023-03-17T12:25:59.270Z,1.20
2023-03-17T12:31:07.228Z,1.03
2023-03-17T12:36:17.145Z,1.50
2023-03-17T12:41:38.218Z,1.30
2023-03-17T12:47:03.241Z,1.47
2023-03-17T12:52:17.806Z,1.40
2023-03-17T12:57:24.413Z,1.43
2023-03-17T13:02:37.955Z,1.00
2023-03-17T13:07:50.345Z,1.33
2023-03-17T13:13:23.179Z,1.20
2023-03-17T13:19:07.433Z,1.20
2023-03-17T13:24:48.250Z,1.50
2023-03-17T13:29:51.395Z,1.30
2023-03-17T13:35:06.506Z,1.20
2023-03-17T13:40:17.496Z,1.10
2023-03-17T13:45:44.074Z,1.27
2023-03-17T13:50:47.284Z,1.20
2023-03-17T13:56:14.573Z,1.57
2023-03-17T14:01:18.676Z,1.20
2023-03-17T14:06:24.184Z,1.27
2023-03-17T14:11:35.913Z,1.30
2023-03-17T14:16:45.649Z,1.20
2023-03-17T14:21:49.047Z,0.97
2023-03-17T14:26:54.351Z,0.87
2023-03-17T14:32:04.379Z,1.20
2023-03-17T14:37:11.837Z,1.10
2023-03-17T14:42:19.729Z,0.90
2023-03-17T14:47:26.958Z,1.20
2023-03-17T14:52:35.670Z,0.87
2023-03-17T14:57:40.582Z,0.90
2023-03-17T15:02:54.871Z,1.13
2023-03-17T15:07:58.246Z,1.20
2023-03-17T15:13:06.019Z,1.00
2023-03-17T15:18:14.072Z,1.00
2023-03-17T15:23:19.485Z,0.90
2023-03-17T15:28:26.894Z,0.90
2023-03-17T15:33:36.945Z,1.00
2023-03-17T15:38:40.398Z,1.00
2023-03-17T15:43:44.926Z,0.90
2023-03-17T15:48:48.063Z,1.10
2023-03-17T15:53:51.527Z,1.13
2023-03-17T15:58:56.156Z,1.30
2023-03-17T16:03:59.681Z,1.30
2023-03-17T16:09:03.593Z,1.30
2023-03-17T16:14:08.360Z,1.47
2023-03-17T16:19:20.056Z,1.10
2023-03-17T16:24:25.860Z,1.30
2023-03-17T16:29:31.229Z,1.17
2023-03-17T16:34:34.427Z,0.90
2023-03-17T16:39:38.063Z,1.10
2023-03-17T16:44:43.262Z,1.20
2023-03-17T16:49:46.708Z,1.40
2023-03-17T16:54:50.146Z,1.10
2023-03-17T16:59:54.702Z,1.30
2023-03-17T17:04:57.800Z,1.17
2023-03-17T17:10:01.171Z,1.00
2023-03-17T17:15:07.007Z,1.00
2023-03-17T17:20:16.060Z,0.90
2023-03-17T17:25:19.654Z,1.23
2023-03-17T17:30:28.333Z,1.10
2023-03-17T17:35:34.143Z,1.00
2023-03-17T17:40:37.387Z,0.90
2023-03-17T17:45:43.463Z,0.90
2023-03-17T17:50:47.093Z,1.50
2023-03-17T17:55:51.133Z,1.47
2023-03-17T18:00:57.433Z,1.47
2023-03-17T18:06:01.209Z,1.40
2023-03-17T18:11:04.433Z,1.47
2023-03-17T18:16:10.781Z,1.20
2023-03-17T18:21:14.570Z,1.20
2023-03-17T18:26:19.645Z,1.20
2023-03-17T18:31:28.624Z,0.90
2023-03-17T18:36:31.765Z,1.00
2023-03-17T18:41:36.550Z,1.07
2023-03-17T18:46:41.147Z,0.80
2023-03-17T18:51:47.433Z,0.90
2023-03-17T18:56:51.697Z,0.73
2023-03-17T19:01:56.340Z,0.80
2023-03-17T19:06:59.582Z,1.00
2023-03-17T19:12:03.153Z,0.80
2023-03-17T19:17:08.710Z,1.20
2023-03-17T19:22:12.857Z,0.83
2023-03-17T19:27:16.286Z,1.13
2023-03-17T19:32:20.998Z,1.00
2023-03-17T19:37:24.443Z,1.27
2023-03-17T19:42:27.689Z,0.80
2023-03-17T19:47:32.502Z,0.80
2023-03-17T19:52:36.000Z,1.20
2023-03-17T19:57:39.302Z,1.00
2023-03-17T20:02:44.062Z,1.13
2023-03-17T20:07:47.497Z,0.80
2023-03-17T20:12:51.097Z,1.03
2023-03-17T20:17:55.845Z,1.23
2023-03-17T20:22:59.134Z,0.93
2023-03-17T20:28:02.784Z,0.90
2023-03-17T20:33:09.806Z,0.90
2023-03-17T20:38:14.678Z,0.70
2023-03-17T20:43:18.075Z,0.90
2023-03-17T20:48:23.073Z,0.70
2023-03-17T20:53:26.308Z,0.70
2023-03-17T20:58:30.394Z,1.10
2023-03-17T21:03:34.983Z,0.87
2023-03-17T21:08:38.630Z,0.90
2023-03-17T21:13:42.763Z,0.90
2023-03-17T21:18:47.460Z,0.80
2023-03-17T21:23:51.868Z,0.70
2023-03-17T21:28:56.466Z,0.77
2023-03-17T21:34:00.987Z,0.77
2023-03-17T21:39:04.533Z,0.70
2023-03-17T21:44:09.706Z,0.67
2023-03-17T21:49:16.110Z,0.80
2023-03-17T21:54:19.592Z,0.77
2023-03-17T21:59:23.796Z,0.60
2023-03-17T22:04:28.519Z,0.87
2023-03-17T22:09:32.089Z,0.50
2023-03-17T22:14:35.627Z,0.70
2023-03-17T22:19:42.272Z,0.70
2023-03-17T22:24:45.355Z,0.80
2023-03-17T22:29:49.132Z,0.63
2023-03-17T22:34:53.974Z,0.93
2023-03-17T22:40:02.206Z,1.00
2023-03-17T22:45:06.265Z,0.80
2023-03-17T22:50:12.499Z,1.00
2023-03-17T22:55:16.436Z,0.70
2023-03-17T23:00:20.297Z,0.70
2023-03-17T23:05:25.633Z,0.53
2023-03-17T23:10:28.780Z,1.00
2023-03-17T23:15:32.574Z,0.70
2023-03-17T23:20:37.136Z,1.00
2023-03-17T23:25:41.185Z,0.70
2023-03-17T23:30:46.163Z,0.90
2023-03-17T23:35:51.504Z,0.80
2023-03-17T23:40:57.056Z,1.00
2023-03-17T23:46:00.582Z,0.70
2023-03-17T23:51:05.393Z,1.00
2023-03-17T23:56:09.312Z,1.00
